sensor_id;sensor_type;location;lat;lon;timestamp;P1;durP1;ratioP1;P2;durP2;ratioP2
67696;SDS011;54486;51.442;6.778;2023-07-13T00:01:58;5.03;;;1.40;;
67696;SDS011;54486;51.442;6.778;2023-07-13T00:04:25;7.40;;;1.40;;
67696;SDS011;54486;51.442;6.778;2023-07-13T00:06:52;5.80;;;1.33;;
67696;SDS011;54486;51.442;6.778;2023-07-13T00:09:20;7.00;;;1.40;;
67696;SDS011;54486;51.442;6.778;2023-07-13T00:11:53;7.60;;;1.40;;
67696;SDS011;54486;51.442;6.778;2023-07-13T00:14:22;5.97;;;1.60;;
67696;SDS011;54486;51.442;6.778;2023-07-13T00:16:51;6.90;;;1.40;;
67696;SDS011;54486;51.442;6.778;2023-07-13T00:19:18;7.00;;;1.50;;
67696;SDS011;54486;51.442;6.778;2023-07-13T00:21:45;6.35;;;1.27;;
67696;SDS011;54486;51.442;6.778;2023-07-13T00:24:13;6.80;;;1.30;;
67696;SDS011;54486;51.442;6.778;2023-07-13T00:26:42;6.15;;;1.45;;
67696;SDS011;54486;51.442;6.778;2023-07-13T00:29:13;6.18;;;1.40;;
67696;SDS011;54486;51.442;6.778;2023-07-13T00:31:40;5.53;;;1.50;;
67696;SDS011;54486;51.442;6.778;2023-07-13T00:34:08;5.68;;;1.30;;
67696;SDS011;54486;51.442;6.778;2023-07-13T00:36:35;6.70;;;1.35;;
67696;SDS011;54486;51.442;6.778;2023-07-13T00:39:02;7.72;;;1.52;;
67696;SDS011;54486;51.442;6.778;2023-07-13T00:41:31;5.97;;;1.45;;
67696;SDS011;54486;51.442;6.778;2023-07-13T00:43:59;5.33;;;1.53;;
67696;SDS011;54486;51.442;6.778;2023-07-13T00:46:30;8.33;;;1.30;;
67696;SDS011;54486;51.442;6.778;2023-07-13T00:48:59;6.57;;;1.48;;
67696;SDS011;54486;51.442;6.778;2023-07-13T00:54:38;5.20;;;1.20;;
67696;SDS011;54486;51.442;6.778;2023-07-13T00:57:11;7.57;;;1.20;;
67696;SDS011;54486;51.442;6.778;2023-07-13T00:59:42;7.50;;;1.52;;
67696;SDS011;54486;51.442;6.778;2023-07-13T01:02:12;6.85;;;1.60;;
67696;SDS011;54486;51.442;6.778;2023-07-13T01:04:39;6.30;;;1.42;;
67696;SDS011;54486;51.442;6.778;2023-07-13T01:07:07;7.03;;;1.35;;
67696;SDS011;54486;51.442;6.778;2023-07-13T01:09:34;6.65;;;1.50;;
67696;SDS011;54486;51.442;6.778;2023-07-13T01:12:01;6.97;;;1.50;;
67696;SDS011;54486;51.442;6.778;2023-07-13T01:14:29;7.50;;;1.40;;
67696;SDS011;54486;51.442;6.778;2023-07-13T01:16:57;10.20;;;1.90;;
67696;SDS011;54486;51.442;6.778;2023-07-13T01:19:37;6.75;;;1.45;;
67696;SDS011;54486;51.442;6.778;2023-07-13T01:22:14;7.60;;;1.35;;
67696;SDS011;54486;51.442;6.778;2023-07-13T01:24:46;9.07;;;1.53;;
67696;SDS011;54486;51.442;6.778;2023-07-13T01:27:15;5.97;;;1.40;;
67696;SDS011;54486;51.442;6.778;2023-07-13T01:29:44;6.35;;;1.38;;
67696;SDS011;54486;51.442;6.778;2023-07-13T01:32:15;5.90;;;1.60;;
67696;SDS011;54486;51.442;6.778;2023-07-13T01:34:51;8.52;;;1.50;;
67696;SDS011;54486;51.442;6.778;2023-07-13T01:37:21;7.60;;;1.80;;
67696;SDS011;54486;51.442;6.778;2023-07-13T01:39:50;8.27;;;1.80;;
67696;SDS011;54486;51.442;6.778;2023-07-13T01:42:17;7.80;;;1.52;;
67696;SDS011;54486;51.442;6.778;2023-07-13T01:44:44;7.43;;;1.90;;
67696;SDS011;54486;51.442;6.778;2023-07-13T01:47:11;7.22;;;1.42;;
67696;SDS011;54486;51.442;6.778;2023-07-13T01:49:38;7.65;;;1.88;;
67696;SDS011;54486;51.442;6.778;2023-07-13T01:52:06;6.70;;;1.75;;
67696;SDS011;54486;51.442;6.778;2023-07-13T01:54:33;7.37;;;1.80;;
67696;SDS011;54486;51.442;6.778;2023-07-13T01:57:00;5.20;;;1.35;;
67696;SDS011;54486;51.442;6.778;2023-07-13T01:59:28;5.43;;;1.55;;
67696;SDS011;54486;51.442;6.778;2023-07-13T02:01:55;8.10;;;1.70;;
67696;SDS011;54486;51.442;6.778;2023-07-13T02:04:22;5.38;;;1.30;;
67696;SDS011;54486;51.442;6.778;2023-07-13T02:06:49;7.53;;;1.50;;
67696;SDS011;54486;51.442;6.778;2023-07-13T02:09:16;7.17;;;1.60;;
67696;SDS011;54486;51.442;6.778;2023-07-13T02:11:43;7.07;;;1.70;;
67696;SDS011;54486;51.442;6.778;2023-07-13T02:14:11;4.43;;;1.30;;
67696;SDS011;54486;51.442;6.778;2023-07-13T02:16:38;6.70;;;1.40;;
67696;SDS011;54486;51.442;6.778;2023-07-13T02:19:05;5.63;;;1.40;;
67696;SDS011;54486;51.442;6.778;2023-07-13T02:21:33;8.45;;;1.63;;
67696;SDS011;54486;51.442;6.778;2023-07-13T02:24:00;6.77;;;1.60;;
67696;SDS011;54486;51.442;6.778;2023-07-13T02:26:27;8.43;;;1.73;;
67696;SDS011;54486;51.442;6.778;2023-07-13T02:28:54;6.13;;;1.70;;
67696;SDS011;54486;51.442;6.778;2023-07-13T02:31:20;7.95;;;1.73;;
67696;SDS011;54486;51.442;6.778;2023-07-13T02:33:49;5.78;;;1.40;;
67696;SDS011;54486;51.442;6.778;2023-07-13T02:36:16;6.20;;;1.60;;
67696;SDS011;54486;51.442;6.778;2023-07-13T02:38:43;6.07;;;1.67;;
67696;SDS011;54486;51.442;6.778;2023-07-13T02:41:10;5.63;;;1.50;;
67696;SDS011;54486;51.442;6.778;2023-07-13T02:43:37;8.23;;;1.75;;
67696;SDS011;54486;51.442;6.778;2023-07-13T02:46:05;6.10;;;1.60;;
67696;SDS011;54486;51.442;6.778;2023-07-13T02:48:35;6.43;;;1.60;;
67696;SDS011;54486;51.442;6.778;2023-07-13T02:51:03;6.97;;;1.65;;
67696;SDS011;54486;51.442;6.778;2023-07-13T02:53:32;6.90;;;1.40;;
67696;SDS011;54486;51.442;6.778;2023-07-13T02:55:59;6.05;;;1.50;;
67696;SDS011;54486;51.442;6.778;2023-07-13T02:58:26;8.50;;;1.73;;
67696;SDS011;54486;51.442;6.778;2023-07-13T03:00:55;7.65;;;1.77;;
67696;SDS011;54486;51.442;6.778;2023-07-13T03:03:22;8.40;;;1.77;;
67696;SDS011;54486;51.442;6.778;2023-07-13T03:05:57;7.18;;;1.77;;
67696;SDS011;54486;51.442;6.778;2023-07-13T03:08:26;7.20;;;1.60;;
67696;SDS011;54486;51.442;6.778;2023-07-13T03:11:04;7.25;;;1.60;;
67696;SDS011;54486;51.442;6.778;2023-07-13T03:13:33;6.80;;;1.67;;
67696;SDS011;54486;51.442;6.778;2023-07-13T03:16:01;6.85;;;2.15;;
67696;SDS011;54486;51.442;6.778;2023-07-13T03:18:28;6.68;;;1.60;;
67696;SDS011;54486;51.442;6.778;2023-07-13T03:20:55;7.10;;;1.60;;
67696;SDS011;54486;51.442;6.778;2023-07-13T03:23:22;7.55;;;1.92;;
67696;SDS011;54486;51.442;6.778;2023-07-13T03:25:50;7.28;;;1.67;;
67696;SDS011;54486;51.442;6.778;2023-07-13T03:28:27;8.73;;;2.30;;
67696;SDS011;54486;51.442;6.778;2023-07-13T03:31:01;7.45;;;2.10;;
67696;SDS011;54486;51.442;6.778;2023-07-13T03:33:30;6.43;;;1.60;;
67696;SDS011;54486;51.442;6.778;2023-07-13T03:35:58;7.70;;;2.00;;
67696;SDS011;54486;51.442;6.778;2023-07-13T03:38:25;6.97;;;1.50;;
67696;SDS011;54486;51.442;6.778;2023-07-13T03:40:53;8.18;;;2.20;;
67696;SDS011;54486;51.442;6.778;2023-07-13T03:43:20;7.25;;;1.67;;
67696;SDS011;54486;51.442;6.778;2023-07-13T03:45:47;6.97;;;1.60;;
67696;SDS011;54486;51.442;6.778;2023-07-13T03:48:14;5.45;;;1.42;;
67696;SDS011;54486;51.442;6.778;2023-07-13T03:50:41;7.57;;;1.40;;
67696;SDS011;54486;51.442;6.778;2023-07-13T03:53:09;7.53;;;1.92;;
67696;SDS011;54486;51.442;6.778;2023-07-13T03:55:37;7.72;;;1.83;;
67696;SDS011;54486;51.442;6.778;2023-07-13T04:01:00;11.70;;;1.95;;
67696;SDS011;54486;51.442;6.778;2023-07-13T04:03:29;8.70;;;1.70;;
67696;SDS011;54486;51.442;6.778;2023-07-13T04:06:00;7.70;;;1.90;;
67696;SDS011;54486;51.442;6.778;2023-07-13T04:08:29;6.97;;;1.98;;
67696;SDS011;54486;51.442;6.778;2023-07-13T04:11:00;6.50;;;1.60;;
67696;SDS011;54486;51.442;6.778;2023-07-13T04:13:28;8.53;;;1.83;;
67696;SDS011;54486;51.442;6.778;2023-07-13T04:15:55;8.30;;;1.90;;
67696;SDS011;54486;51.442;6.778;2023-07-13T04:18:22;7.57;;;2.10;;
67696;SDS011;54486;51.442;6.778;2023-07-13T04:20:50;7.50;;;1.87;;
67696;SDS011;54486;51.442;6.778;2023-07-13T04:23:18;7.20;;;1.77;;
67696;SDS011;54486;51.442;6.778;2023-07-13T04:25:46;8.20;;;1.98;;
67696;SDS011;54486;51.442;6.778;2023-07-13T04:28:16;8.43;;;1.90;;
67696;SDS011;54486;51.442;6.778;2023-07-13T04:30:44;7.63;;;1.92;;
67696;SDS011;54486;51.442;6.778;2023-07-13T04:33:12;8.98;;;1.98;;
67696;SDS011;54486;51.442;6.778;2023-07-13T04:35:39;8.30;;;1.80;;
67696;SDS011;54486;51.442;6.778;2023-07-13T04:38:06;7.70;;;1.80;;
67696;SDS011;54486;51.442;6.778;2023-07-13T04:40:33;7.65;;;1.95;;
67696;SDS011;54486;51.442;6.778;2023-07-13T04:43:00;7.10;;;1.60;;
67696;SDS011;54486;51.442;6.778;2023-07-13T04:45:27;8.45;;;1.73;;
67696;SDS011;54486;51.442;6.778;2023-07-13T04:47:54;8.57;;;1.93;;
67696;SDS011;54486;51.442;6.778;2023-07-13T04:50:21;8.82;;;2.00;;
67696;SDS011;54486;51.442;6.778;2023-07-13T04:52:50;9.25;;;2.20;;
67696;SDS011;54486;51.442;6.778;2023-07-13T04:55:18;9.00;;;1.77;;
67696;SDS011;54486;51.442;6.778;2023-07-13T04:57:46;6.90;;;1.88;;
67696;SDS011;54486;51.442;6.778;2023-07-13T05:00:13;7.10;;;1.52;;
67696;SDS011;54486;51.442;6.778;2023-07-13T05:02:45;8.83;;;2.03;;
67696;SDS011;54486;51.442;6.778;2023-07-13T05:05:13;7.47;;;1.90;;
67696;SDS011;54486;51.442;6.778;2023-07-13T05:07:40;9.05;;;2.28;;
67696;SDS011;54486;51.442;6.778;2023-07-13T05:10:07;9.07;;;2.07;;
67696;SDS011;54486;51.442;6.778;2023-07-13T05:12:34;8.57;;;1.95;;
67696;SDS011;54486;51.442;6.778;2023-07-13T05:15:02;8.48;;;2.17;;
67696;SDS011;54486;51.442;6.778;2023-07-13T05:17:30;9.77;;;2.03;;
67696;SDS011;54486;51.442;6.778;2023-07-13T05:19:57;7.20;;;2.10;;
67696;SDS011;54486;51.442;6.778;2023-07-13T05:22:24;7.63;;;1.83;;
67696;SDS011;54486;51.442;6.778;2023-07-13T05:24:51;9.80;;;1.92;;
67696;SDS011;54486;51.442;6.778;2023-07-13T05:27:18;7.85;;;2.05;;
67696;SDS011;54486;51.442;6.778;2023-07-13T05:29:45;7.25;;;1.70;;
67696;SDS011;54486;51.442;6.778;2023-07-13T05:32:13;7.07;;;1.95;;
67696;SDS011;54486;51.442;6.778;2023-07-13T05:34:40;10.47;;;2.27;;
67696;SDS011;54486;51.442;6.778;2023-07-13T05:37:07;8.15;;;2.08;;
67696;SDS011;54486;51.442;6.778;2023-07-13T05:39:34;11.05;;;2.20;;
67696;SDS011;54486;51.442;6.778;2023-07-13T05:42:03;8.63;;;2.22;;
67696;SDS011;54486;51.442;6.778;2023-07-13T05:44:30;10.80;;;2.35;;
67696;SDS011;54486;51.442;6.778;2023-07-13T05:46:58;9.35;;;2.47;;
67696;SDS011;54486;51.442;6.778;2023-07-13T05:49:25;8.37;;;2.33;;
67696;SDS011;54486;51.442;6.778;2023-07-13T05:51:52;8.98;;;2.22;;
67696;SDS011;54486;51.442;6.778;2023-07-13T05:54:20;8.43;;;2.28;;
67696;SDS011;54486;51.442;6.778;2023-07-13T05:56:47;10.32;;;2.20;;
67696;SDS011;54486;51.442;6.778;2023-07-13T05:59:14;10.70;;;2.35;;
67696;SDS011;54486;51.442;6.778;2023-07-13T06:01:41;9.77;;;2.50;;
67696;SDS011;54486;51.442;6.778;2023-07-13T06:04:08;9.45;;;2.13;;
67696;SDS011;54486;51.442;6.778;2023-07-13T06:06:35;9.73;;;2.73;;
67696;SDS011;54486;51.442;6.778;2023-07-13T06:09:02;10.43;;;2.35;;
67696;SDS011;54486;51.442;6.778;2023-07-13T06:11:29;8.83;;;2.40;;
67696;SDS011;54486;51.442;6.778;2023-07-13T06:13:56;9.15;;;2.28;;
67696;SDS011;54486;51.442;6.778;2023-07-13T06:16:24;9.57;;;2.15;;
67696;SDS011;54486;51.442;6.778;2023-07-13T06:18:51;12.45;;;2.58;;
67696;SDS011;54486;51.442;6.778;2023-07-13T06:21:19;9.57;;;2.30;;
67696;SDS011;54486;51.442;6.778;2023-07-13T06:23:49;12.52;;;2.35;;
67696;SDS011;54486;51.442;6.778;2023-07-13T06:26:19;11.33;;;2.60;;
67696;SDS011;54486;51.442;6.778;2023-07-13T06:28:47;11.80;;;2.80;;
67696;SDS011;54486;51.442;6.778;2023-07-13T06:31:15;10.85;;;2.47;;
67696;SDS011;54486;51.442;6.778;2023-07-13T06:33:43;11.25;;;2.80;;
67696;SDS011;54486;51.442;6.778;2023-07-13T06:36:10;12.05;;;2.60;;
67696;SDS011;54486;51.442;6.778;2023-07-13T06:38:38;11.73;;;2.58;;
67696;SDS011;54486;51.442;6.778;2023-07-13T06:41:06;9.90;;;2.75;;
67696;SDS011;54486;51.442;6.778;2023-07-13T06:43:34;10.80;;;2.40;;
67696;SDS011;54486;51.442;6.778;2023-07-13T06:46:02;9.68;;;2.92;;
67696;SDS011;54486;51.442;6.778;2023-07-13T06:48:29;11.48;;;2.58;;
67696;SDS011;54486;51.442;6.778;2023-07-13T06:50:57;10.43;;;2.57;;
67696;SDS011;54486;51.442;6.778;2023-07-13T06:53:24;9.70;;;2.90;;
67696;SDS011;54486;51.442;6.778;2023-07-13T06:55:52;10.95;;;2.45;;
67696;SDS011;54486;51.442;6.778;2023-07-13T06:58:19;7.97;;;2.53;;
67696;SDS011;54486;51.442;6.778;2023-07-13T07:00:49;9.35;;;2.53;;
67696;SDS011;54486;51.442;6.778;2023-07-13T07:03:18;9.73;;;2.40;;
67696;SDS011;54486;51.442;6.778;2023-07-13T07:05:45;10.02;;;2.53;;
67696;SDS011;54486;51.442;6.778;2023-07-13T07:08:13;9.82;;;2.47;;
67696;SDS011;54486;51.442;6.778;2023-07-13T07:10:41;11.48;;;2.50;;
67696;SDS011;54486;51.442;6.778;2023-07-13T07:13:10;9.25;;;2.60;;
67696;SDS011;54486;51.442;6.778;2023-07-13T07:15:37;10.93;;;2.80;;
67696;SDS011;54486;51.442;6.778;2023-07-13T07:18:04;8.70;;;2.90;;
67696;SDS011;54486;51.442;6.778;2023-07-13T07:20:31;10.18;;;2.92;;
67696;SDS011;54486;51.442;6.778;2023-07-13T07:23:00;10.73;;;2.70;;
67696;SDS011;54486;51.442;6.778;2023-07-13T07:25:27;9.77;;;3.00;;
67696;SDS011;54486;51.442;6.778;2023-07-13T07:27:58;9.20;;;2.83;;
67696;SDS011;54486;51.442;6.778;2023-07-13T07:30:28;11.15;;;3.03;;
67696;SDS011;54486;51.442;6.778;2023-07-13T07:32:58;10.48;;;3.25;;
67696;SDS011;54486;51.442;6.778;2023-07-13T07:35:30;9.85;;;2.70;;
67696;SDS011;54486;51.442;6.778;2023-07-13T07:38:02;10.30;;;3.33;;
67696;SDS011;54486;51.442;6.778;2023-07-13T07:40:32;8.95;;;2.50;;
67696;SDS011;54486;51.442;6.778;2023-07-13T07:43:07;11.30;;;3.00;;
67696;SDS011;54486;51.442;6.778;2023-07-13T07:45:35;10.30;;;3.53;;
67696;SDS011;54486;51.442;6.778;2023-07-13T07:48:04;9.90;;;2.97;;
67696;SDS011;54486;51.442;6.778;2023-07-13T07:50:33;9.05;;;2.97;;
67696;SDS011;54486;51.442;6.778;2023-07-13T07:53:00;12.80;;;2.95;;
67696;SDS011;54486;51.442;6.778;2023-07-13T07:55:28;10.32;;;2.58;;
67696;SDS011;54486;51.442;6.778;2023-07-13T07:57:58;11.43;;;3.10;;
67696;SDS011;54486;51.442;6.778;2023-07-13T08:00:29;10.63;;;3.50;;
67696;SDS011;54486;51.442;6.778;2023-07-13T08:03:18;9.05;;;2.95;;
67696;SDS011;54486;51.442;6.778;2023-07-13T08:05:48;10.30;;;3.10;;
67696;SDS011;54486;51.442;6.778;2023-07-13T08:08:18;12.30;;;3.00;;
67696;SDS011;54486;51.442;6.778;2023-07-13T08:10:45;9.80;;;2.70;;
67696;SDS011;54486;51.442;6.778;2023-07-13T08:13:14;9.20;;;2.78;;
67696;SDS011;54486;51.442;6.778;2023-07-13T08:15:42;11.25;;;3.00;;
67696;SDS011;54486;51.442;6.778;2023-07-13T08:18:10;10.40;;;2.85;;
67696;SDS011;54486;51.442;6.778;2023-07-13T08:20:40;12.77;;;3.10;;
67696;SDS011;54486;51.442;6.778;2023-07-13T08:23:07;10.05;;;3.22;;
67696;SDS011;54486;51.442;6.778;2023-07-13T08:25:36;9.38;;;2.75;;
67696;SDS011;54486;51.442;6.778;2023-07-13T08:28:03;8.53;;;2.60;;
67696;SDS011;54486;51.442;6.778;2023-07-13T08:30:31;9.80;;;2.83;;
67696;SDS011;54486;51.442;6.778;2023-07-13T08:32:58;11.67;;;3.20;;
67696;SDS011;54486;51.442;6.778;2023-07-13T08:35:25;10.35;;;2.58;;
67696;SDS011;54486;51.442;6.778;2023-07-13T08:37:53;11.18;;;2.88;;
67696;SDS011;54486;51.442;6.778;2023-07-13T08:40:24;11.03;;;2.83;;
67696;SDS011;54486;51.442;6.778;2023-07-13T08:42:57;11.02;;;3.05;;
67696;SDS011;54486;51.442;6.778;2023-07-13T08:48:10;9.45;;;2.72;;
67696;SDS011;54486;51.442;6.778;2023-07-13T08:50:55;8.85;;;2.38;;
67696;SDS011;54486;51.442;6.778;2023-07-13T08:53:42;9.02;;;2.40;;
67696;SDS011;54486;51.442;6.778;2023-07-13T08:56:19;9.50;;;2.80;;
67696;SDS011;54486;51.442;6.778;2023-07-13T08:58:51;8.60;;;2.53;;
67696;SDS011;54486;51.442;6.778;2023-07-13T09:04:27;7.88;;;2.13;;
67696;SDS011;54486;51.442;6.778;2023-07-13T09:07:12;11.40;;;2.70;;
67696;SDS011;54486;51.442;6.778;2023-07-13T09:14:49;10.02;;;3.10;;
67696;SDS011;54486;51.442;6.778;2023-07-13T09:17:22;9.33;;;2.70;;
67696;SDS011;54486;51.442;6.778;2023-07-13T09:20:02;9.68;;;3.50;;
67696;SDS011;54486;51.442;6.778;2023-07-13T09:22:34;10.25;;;2.92;;
67696;SDS011;54486;51.442;6.778;2023-07-13T09:25:05;10.65;;;2.83;;
67696;SDS011;54486;51.442;6.778;2023-07-13T09:27:49;8.68;;;2.67;;
67696;SDS011;54486;51.442;6.778;2023-07-13T09:30:22;10.43;;;2.72;;
67696;SDS011;54486;51.442;6.778;2023-07-13T09:32:57;10.40;;;2.80;;
67696;SDS011;54486;51.442;6.778;2023-07-13T09:35:27;8.27;;;2.85;;
67696;SDS011;54486;51.442;6.778;2023-07-13T09:38:01;8.65;;;2.40;;
67696;SDS011;54486;51.442;6.778;2023-07-13T09:40:43;8.85;;;2.70;;
67696;SDS011;54486;51.442;6.778;2023-07-13T09:43:21;8.88;;;2.70;;
67696;SDS011;54486;51.442;6.778;2023-07-13T09:45:49;8.43;;;2.50;;
67696;SDS011;54486;51.442;6.778;2023-07-13T09:48:16;11.13;;;2.80;;
67696;SDS011;54486;51.442;6.778;2023-07-13T09:50:44;10.70;;;2.70;;
67696;SDS011;54486;51.442;6.778;2023-07-13T09:53:12;8.30;;;2.15;;
67696;SDS011;54486;51.442;6.778;2023-07-13T09:55:45;7.22;;;2.65;;
67696;SDS011;54486;51.442;6.778;2023-07-13T09:58:23;10.03;;;2.77;;
67696;SDS011;54486;51.442;6.778;2023-07-13T10:00:56;8.52;;;2.40;;
67696;SDS011;54486;51.442;6.778;2023-07-13T10:03:35;9.37;;;2.67;;
67696;SDS011;54486;51.442;6.778;2023-07-13T10:06:19;11.00;;;2.50;;
67696;SDS011;54486;51.442;6.778;2023-07-13T10:08:55;10.90;;;2.78;;
67696;SDS011;54486;51.442;6.778;2023-07-13T10:13:51;8.90;;;2.30;;
67696;SDS011;54486;51.442;6.778;2023-07-13T10:16:23;9.10;;;2.50;;
67696;SDS011;54486;51.442;6.778;2023-07-13T10:18:53;8.43;;;2.60;;
67696;SDS011;54486;51.442;6.778;2023-07-13T10:21:27;8.23;;;2.35;;
67696;SDS011;54486;51.442;6.778;2023-07-13T10:24:04;10.20;;;2.47;;
67696;SDS011;54486;51.442;6.778;2023-07-13T10:26:33;9.23;;;2.67;;
67696;SDS011;54486;51.442;6.778;2023-07-13T10:29:05;8.60;;;2.40;;
67696;SDS011;54486;51.442;6.778;2023-07-13T10:31:38;8.40;;;2.70;;
67696;SDS011;54486;51.442;6.778;2023-07-13T10:34:08;8.40;;;2.15;;
67696;SDS011;54486;51.442;6.778;2023-07-13T10:36:40;9.10;;;2.17;;
67696;SDS011;54486;51.442;6.778;2023-07-13T10:39:29;9.82;;;2.47;;
67696;SDS011;54486;51.442;6.778;2023-07-13T10:41:58;8.80;;;2.10;;
67696;SDS011;54486;51.442;6.778;2023-07-13T10:44:30;8.07;;;2.33;;
67696;SDS011;54486;51.442;6.778;2023-07-13T10:47:02;9.57;;;2.20;;
67696;SDS011;54486;51.442;6.778;2023-07-13T10:49:34;9.68;;;2.38;;
67696;SDS011;54486;51.442;6.778;2023-07-13T10:52:03;8.05;;;2.13;;
67696;SDS011;54486;51.442;6.778;2023-07-13T10:54:31;9.07;;;2.08;;
67696;SDS011;54486;51.442;6.778;2023-07-13T10:57:33;8.90;;;2.20;;
67696;SDS011;54486;51.442;6.778;2023-07-13T11:02:31;9.38;;;2.70;;
67696;SDS011;54486;51.442;6.778;2023-07-13T11:04:58;10.05;;;2.13;;
67696;SDS011;54486;51.442;6.778;2023-07-13T11:07:54;7.70;;;2.20;;
67696;SDS011;54486;51.442;6.778;2023-07-13T11:10:45;9.80;;;2.63;;
67696;SDS011;54486;51.442;6.778;2023-07-13T11:21:20;7.30;;;1.92;;
67696;SDS011;54486;51.442;6.778;2023-07-13T11:26:42;7.25;;;1.80;;
67696;SDS011;54486;51.442;6.778;2023-07-13T11:29:35;8.00;;;2.03;;
67696;SDS011;54486;51.442;6.778;2023-07-13T11:32:22;8.50;;;2.10;;
67696;SDS011;54486;51.442;6.778;2023-07-13T11:34:53;7.60;;;1.90;;
67696;SDS011;54486;51.442;6.778;2023-07-13T11:37:21;7.57;;;1.80;;
67696;SDS011;54486;51.442;6.778;2023-07-13T11:39:50;9.25;;;1.90;;
67696;SDS011;54486;51.442;6.778;2023-07-13T11:42:20;9.02;;;1.95;;
67696;SDS011;54486;51.442;6.778;2023-07-13T11:44:48;7.43;;;2.00;;
67696;SDS011;54486;51.442;6.778;2023-07-13T11:47:39;7.53;;;1.80;;
67696;SDS011;54486;51.442;6.778;2023-07-13T11:50:16;7.22;;;1.90;;
67696;SDS011;54486;51.442;6.778;2023-07-13T11:52:45;7.50;;;2.20;;
67696;SDS011;54486;51.442;6.778;2023-07-13T11:55:14;9.10;;;1.63;;
67696;SDS011;54486;51.442;6.778;2023-07-13T11:57:47;6.97;;;1.73;;
67696;SDS011;54486;51.442;6.778;2023-07-13T12:00:19;8.05;;;1.50;;
67696;SDS011;54486;51.442;6.778;2023-07-13T12:02:51;7.75;;;1.77;;
67696;SDS011;54486;51.442;6.778;2023-07-13T12:05:20;7.90;;;1.77;;
67696;SDS011;54486;51.442;6.778;2023-07-13T12:07:48;8.00;;;1.65;;
67696;SDS011;54486;51.442;6.778;2023-07-13T12:12:55;8.30;;;1.70;;
67696;SDS011;54486;51.442;6.778;2023-07-13T12:15:32;6.97;;;2.30;;
67696;SDS011;54486;51.442;6.778;2023-07-13T12:18:14;8.15;;;1.88;;
67696;SDS011;54486;51.442;6.778;2023-07-13T12:20:46;7.57;;;2.03;;
67696;SDS011;54486;51.442;6.778;2023-07-13T12:23:25;7.10;;;2.00;;
67696;SDS011;54486;51.442;6.778;2023-07-13T12:25:52;8.03;;;1.87;;
67696;SDS011;54486;51.442;6.778;2023-07-13T12:28:40;6.63;;;1.67;;
67696;SDS011;54486;51.442;6.778;2023-07-13T12:31:32;7.03;;;1.80;;
67696;SDS011;54486;51.442;6.778;2023-07-13T12:36:35;7.63;;;1.85;;
67696;SDS011;54486;51.442;6.778;2023-07-13T12:41:52;7.20;;;1.80;;
67696;SDS011;54486;51.442;6.778;2023-07-13T12:44:27;6.30;;;1.80;;
67696;SDS011;54486;51.442;6.778;2023-07-13T12:46:58;6.93;;;1.80;;
67696;SDS011;54486;51.442;6.778;2023-07-13T12:49:33;6.45;;;2.20;;
67696;SDS011;54486;51.442;6.778;2023-07-13T12:52:03;6.55;;;1.77;;
67696;SDS011;54486;51.442;6.778;2023-07-13T12:54:40;6.20;;;1.77;;
67696;SDS011;54486;51.442;6.778;2023-07-13T12:57:18;8.10;;;1.70;;
67696;SDS011;54486;51.442;6.778;2023-07-13T12:59:45;6.35;;;1.85;;
67696;SDS011;54486;51.442;6.778;2023-07-13T13:02:18;6.25;;;1.90;;
67696;SDS011;54486;51.442;6.778;2023-07-13T13:04:59;7.95;;;1.80;;
67696;SDS011;54486;51.442;6.778;2023-07-13T13:07:26;7.95;;;1.85;;
67696;SDS011;54486;51.442;6.778;2023-07-13T13:09:54;8.43;;;2.20;;
67696;SDS011;54486;51.442;6.778;2023-07-13T13:12:21;9.00;;;1.92;;
67696;SDS011;54486;51.442;6.778;2023-07-13T13:14:49;8.15;;;1.77;;
67696;SDS011;54486;51.442;6.778;2023-07-13T13:17:19;6.78;;;1.58;;
67696;SDS011;54486;51.442;6.778;2023-07-13T13:19:51;7.88;;;1.80;;
67696;SDS011;54486;51.442;6.778;2023-07-13T13:22:23;7.25;;;1.90;;
67696;SDS011;54486;51.442;6.778;2023-07-13T13:24:51;6.28;;;1.80;;
67696;SDS011;54486;51.442;6.778;2023-07-13T13:27:18;7.85;;;1.85;;
67696;SDS011;54486;51.442;6.778;2023-07-13T13:29:49;7.53;;;1.67;;
67696;SDS011;54486;51.442;6.778;2023-07-13T13:32:20;7.53;;;1.80;;
67696;SDS011;54486;51.442;6.778;2023-07-13T13:34:47;8.90;;;1.75;;
67696;SDS011;54486;51.442;6.778;2023-07-13T13:37:20;7.57;;;1.55;;
67696;SDS011;54486;51.442;6.778;2023-07-13T13:39:49;8.57;;;1.75;;
67696;SDS011;54486;51.442;6.778;2023-07-13T13:42:33;7.70;;;1.70;;
67696;SDS011;54486;51.442;6.778;2023-07-13T13:45:00;8.57;;;1.80;;
67696;SDS011;54486;51.442;6.778;2023-07-13T13:47:31;7.88;;;1.70;;
67696;SDS011;54486;51.442;6.778;2023-07-13T13:50:11;6.72;;;1.63;;
67696;SDS011;54486;51.442;6.778;2023-07-13T13:52:42;7.40;;;1.90;;
67696;SDS011;54486;51.442;6.778;2023-07-13T13:55:13;8.02;;;1.75;;
67696;SDS011;54486;51.442;6.778;2023-07-13T13:57:47;6.55;;;1.55;;
67696;SDS011;54486;51.442;6.778;2023-07-13T14:00:16;6.85;;;1.88;;
67696;SDS011;54486;51.442;6.778;2023-07-13T14:02:45;7.75;;;2.17;;
67696;SDS011;54486;51.442;6.778;2023-07-13T14:05:15;8.43;;;2.13;;
67696;SDS011;54486;51.442;6.778;2023-07-13T14:07:46;8.20;;;2.17;;
67696;SDS011;54486;51.442;6.778;2023-07-13T14:10:18;8.80;;;2.40;;
67696;SDS011;54486;51.442;6.778;2023-07-13T14:12:47;9.63;;;2.70;;
67696;SDS011;54486;51.442;6.778;2023-07-13T14:15:19;8.63;;;2.30;;
67696;SDS011;54486;51.442;6.778;2023-07-13T14:17:47;8.82;;;2.35;;
67696;SDS011;54486;51.442;6.778;2023-07-13T14:20:18;8.13;;;2.80;;
67696;SDS011;54486;51.442;6.778;2023-07-13T14:22:47;9.65;;;2.80;;
67696;SDS011;54486;51.442;6.778;2023-07-13T14:25:16;12.32;;;3.75;;
67696;SDS011;54486;51.442;6.778;2023-07-13T14:27:43;10.50;;;3.30;;
67696;SDS011;54486;51.442;6.778;2023-07-13T14:32:40;9.43;;;3.50;;
67696;SDS011;54486;51.442;6.778;2023-07-13T14:35:12;11.35;;;3.03;;
67696;SDS011;54486;51.442;6.778;2023-07-13T14:37:40;8.95;;;3.00;;
67696;SDS011;54486;51.442;6.778;2023-07-13T14:40:20;7.57;;;2.53;;
67696;SDS011;54486;51.442;6.778;2023-07-13T14:42:54;10.32;;;3.10;;
67696;SDS011;54486;51.442;6.778;2023-07-13T14:45:21;8.25;;;2.47;;
67696;SDS011;54486;51.442;6.778;2023-07-13T14:47:48;9.10;;;2.20;;
67696;SDS011;54486;51.442;6.778;2023-07-13T14:50:17;8.35;;;2.25;;
67696;SDS011;54486;51.442;6.778;2023-07-13T14:52:46;8.10;;;2.17;;
67696;SDS011;54486;51.442;6.778;2023-07-13T14:55:16;9.05;;;2.50;;
67696;SDS011;54486;51.442;6.778;2023-07-13T14:57:45;7.38;;;2.30;;
67696;SDS011;54486;51.442;6.778;2023-07-13T15:00:13;7.20;;;2.15;;
67696;SDS011;54486;51.442;6.778;2023-07-13T15:02:47;6.88;;;2.40;;
67696;SDS011;54486;51.442;6.778;2023-07-13T15:05:17;7.45;;;2.30;;
67696;SDS011;54486;51.442;6.778;2023-07-13T15:07:48;8.40;;;2.03;;
67696;SDS011;54486;51.442;6.778;2023-07-13T15:10:17;7.55;;;2.15;;
67696;SDS011;54486;51.442;6.778;2023-07-13T15:12:52;9.63;;;2.30;;
67696;SDS011;54486;51.442;6.778;2023-07-13T15:15:20;8.80;;;2.33;;
67696;SDS011;54486;51.442;6.778;2023-07-13T15:17:47;7.45;;;2.00;;
67696;SDS011;54486;51.442;6.778;2023-07-13T15:20:26;6.47;;;2.10;;
67696;SDS011;54486;51.442;6.778;2023-07-13T15:22:59;6.37;;;1.70;;
67696;SDS011;54486;51.442;6.778;2023-07-13T15:25:28;7.43;;;1.90;;
67696;SDS011;54486;51.442;6.778;2023-07-13T15:27:57;9.55;;;2.20;;
67696;SDS011;54486;51.442;6.778;2023-07-13T15:30:25;9.18;;;2.17;;
67696;SDS011;54486;51.442;6.778;2023-07-13T15:32:58;7.80;;;2.20;;
67696;SDS011;54486;51.442;6.778;2023-07-13T15:35:33;7.93;;;2.33;;
67696;SDS011;54486;51.442;6.778;2023-07-13T15:38:00;8.30;;;2.42;;
67696;SDS011;54486;51.442;6.778;2023-07-13T15:40:28;8.23;;;2.10;;
67696;SDS011;54486;51.442;6.778;2023-07-13T15:42:55;6.77;;;1.90;;
67696;SDS011;54486;51.442;6.778;2023-07-13T15:45:23;6.87;;;2.00;;
67696;SDS011;54486;51.442;6.778;2023-07-13T15:47:54;7.03;;;1.73;;